createdAt,value
2023-01-05T00:00:28.619Z,11.11
2023-01-05T00:01:27.572Z,11.07
2023-01-05T00:02:28.589Z,11.15
2023-01-05T00:03:27.552Z,10.99
2023-01-05T00:04:27.604Z,10.96
2023-01-05T00:05:27.525Z,10.92
2023-01-05T00:06:27.523Z,10.93
2023-01-05T00:07:27.507Z,10.84
2023-01-05T00:08:31.568Z,10.87
2023-01-05T00:09:29.487Z,10.82
2023-01-05T00:10:27.488Z,10.89
2023-01-05T00:11:27.481Z,10.93
2023-01-05T00:12:27.469Z,10.81
2023-01-05T00:13:28.157Z,10.74
2023-01-05T00:14:28.445Z,10.71
2023-01-05T00:15:27.458Z,10.84
2023-01-05T00:16:27.435Z,10.75
2023-01-05T00:17:28.096Z,10.72
2023-01-05T00:18:27.426Z,10.84
2023-01-05T00:19:28.186Z,10.75
2023-01-05T00:20:27.398Z,10.76
2023-01-05T00:21:27.392Z,10.79
2023-01-05T00:22:28.188Z,10.79
2023-01-05T00:23:29.182Z,10.71
2023-01-05T00:24:27.370Z,10.78
2023-01-05T00:27:00.912Z,10.89
2023-01-05T00:28:00.050Z,10.89
2023-01-05T00:29:01.905Z,10.79
2023-01-05T00:30:01.143Z,10.78
2023-01-05T00:31:01.935Z,10.78
2023-01-05T00:32:01.147Z,10.82
2023-01-05T00:33:10.019Z,10.82
2023-01-05T00:34:01.091Z,10.72
2023-01-05T00:35:01.084Z,10.75
2023-01-05T00:36:01.091Z,10.82
2023-01-05T00:37:01.139Z,10.89
2023-01-05T00:38:01.928Z,10.89
2023-01-05T00:39:02.921Z,10.81
2023-01-05T00:40:01.049Z,10.82
2023-01-05T00:41:01.040Z,10.86
2023-01-05T00:43:08.356Z,10.87
2023-01-05T00:44:08.354Z,10.86
2023-01-05T00:45:10.338Z,10.79
2023-01-05T00:46:09.480Z,10.86
2023-01-05T00:47:09.428Z,10.86
2023-01-05T00:48:09.429Z,10.90
2023-01-05T00:49:09.415Z,10.90
2023-01-05T00:50:11.322Z,10.92
2023-01-05T00:51:09.397Z,10.99
2023-01-05T00:52:10.323Z,11.00
2023-01-05T00:53:09.381Z,10.97
2023-01-05T00:54:09.365Z,11.10
2023-01-05T00:55:09.375Z,11.10
2023-01-05T00:56:09.352Z,11.18
2023-01-05T00:57:09.360Z,11.11
2023-01-05T00:58:09.333Z,11.22
2023-01-05T00:59:11.343Z,11.23
2023-01-05T01:00:09.351Z,11.26
2023-01-05T01:01:11.905Z,11.35
2023-01-05T01:02:09.356Z,11.36
2023-01-05T01:03:13.301Z,11.37
2023-01-05T01:04:10.286Z,11.50
2023-01-05T01:05:10.311Z,11.44
2023-01-05T01:06:09.827Z,11.47
2023-01-05T01:07:09.265Z,11.57
2023-01-05T01:08:09.300Z,11.50
2023-01-05T01:09:09.254Z,11.62
2023-01-05T01:10:09.853Z,11.59
2023-01-05T01:11:09.238Z,11.60
2023-01-05T01:12:09.243Z,11.59
2023-01-05T01:13:09.848Z,11.52
2023-01-05T01:14:09.216Z,11.59
2023-01-05T01:15:09.197Z,11.62
2023-01-05T01:16:09.240Z,11.72
2023-01-05T01:17:09.824Z,11.66
2023-01-05T01:18:09.188Z,11.73
2023-01-05T01:19:09.165Z,11.72
2023-01-05T01:20:09.178Z,11.78
2023-01-05T01:21:09.158Z,11.78
2023-01-05T01:22:09.137Z,11.70
2023-01-05T01:23:09.131Z,11.75
2023-01-05T01:24:09.118Z,11.66
2023-01-05T01:25:15.730Z,11.75
2023-01-05T01:26:09.108Z,11.69
2023-01-05T01:27:09.107Z,11.78
2023-01-05T01:28:09.098Z,11.69
2023-01-05T01:29:09.088Z,11.68
2023-01-05T01:30:10.843Z,11.75
2023-01-05T01:31:09.854Z,11.72
2023-01-05T01:32:10.747Z,11.80
2023-01-05T01:33:11.772Z,11.86
2023-01-05T01:34:09.048Z,11.78
2023-01-05T01:35:09.765Z,11.73
2023-01-05T01:36:09.041Z,11.80
2023-01-05T01:37:09.024Z,11.75
2023-01-05T01:38:10.751Z,11.70
2023-01-05T01:39:09.015Z,11.75
2023-01-05T01:40:09.016Z,11.77
2023-01-05T01:41:09.000Z,11.87
2023-01-05T01:42:09.011Z,11.84
2023-01-05T01:43:08.972Z,11.84
2023-01-05T01:44:08.967Z,11.80
2023-01-05T01:45:08.959Z,11.81
2023-01-05T01:46:09.001Z,11.75
2023-01-05T01:47:08.960Z,11.77
2023-01-05T01:48:09.836Z,11.73
2023-01-05T01:49:08.951Z,11.78
2023-01-05T01:50:08.930Z,11.80
2023-01-05T01:51:08.926Z,11.73
2023-01-05T01:52:08.903Z,11.81
2023-01-05T01:53:08.910Z,11.80
2023-01-05T01:54:08.892Z,11.78
2023-01-05T01:55:08.886Z,11.83
2023-01-05T01:56:08.884Z,11.84
2023-01-05T01:57:08.886Z,11.86
2023-01-05T01:58:08.863Z,11.80
2023-01-05T01:59:08.863Z,11.72
2023-01-05T02:00:08.828Z,11.70
2023-01-05T02:01:08.930Z,11.72
2023-01-05T02:02:08.953Z,11.70
2023-01-05T02:03:08.822Z,11.78
2023-01-05T02:04:09.835Z,11.69
2023-01-05T02:05:08.797Z,11.78
2023-01-05T02:06:08.793Z,11.59
2023-01-05T02:07:08.785Z,11.73
2023-01-05T02:08:08.779Z,11.66
2023-01-05T02:09:08.770Z,11.62
2023-01-05T02:10:08.783Z,11.65
2023-01-05T02:11:08.751Z,11.63
2023-01-05T02:12:08.736Z,11.65
2023-01-05T02:13:08.748Z,11.62
2023-01-05T02:14:08.730Z,11.59
2023-01-05T02:15:08.726Z,11.57
2023-01-05T02:16:09.418Z,11.65
2023-01-05T02:17:08.781Z,11.54
2023-01-05T02:18:08.733Z,11.55
2023-01-05T02:19:08.694Z,11.55
2023-01-05T02:20:08.673Z,11.54
2023-01-05T02:21:14.921Z,11.52
2023-01-05T02:22:10.683Z,11.55
2023-01-05T02:23:08.670Z,11.52
2023-01-05T02:24:08.653Z,11.48
2023-01-05T02:25:08.642Z,11.47
2023-01-05T02:26:08.636Z,11.43
2023-01-05T02:27:09.316Z,11.35
2023-01-05T02:28:08.614Z,11.41
2023-01-05T02:29:12.265Z,11.43
2023-01-05T02:30:08.603Z,11.45
2023-01-05T02:31:08.679Z,11.44
2023-01-05T02:32:08.584Z,11.37
2023-01-05T02:33:08.606Z,11.43
2023-01-05T02:34:08.586Z,11.36
2023-01-05T02:35:08.577Z,11.44
2023-01-05T02:36:08.556Z,11.41
2023-01-05T02:37:08.556Z,11.37
2023-01-05T02:38:08.543Z,11.41
2023-01-05T02:39:08.535Z,11.37
2023-01-05T02:40:08.524Z,11.41
2023-01-05T02:41:08.515Z,11.44
2023-01-05T02:42:08.524Z,11.35
2023-01-05T02:43:08.520Z,11.40
2023-01-05T02:44:08.547Z,11.29
2023-01-05T02:45:08.521Z,11.33
2023-01-05T02:46:08.586Z,11.33
2023-01-05T02:47:08.489Z,11.33
2023-01-05T02:48:08.474Z,11.40
2023-01-05T02:49:08.458Z,11.44
2023-01-05T02:50:08.470Z,11.32
2023-01-05T02:51:08.447Z,11.29
2023-01-05T02:52:08.454Z,11.23
2023-01-05T02:53:09.386Z,11.33
2023-01-05T02:54:08.430Z,11.26
2023-01-05T02:55:08.416Z,11.40
2023-01-05T02:56:08.430Z,11.25
2023-01-05T02:57:08.398Z,11.27
2023-01-05T02:58:08.400Z,11.29
2023-01-05T02:59:08.433Z,11.27
2023-01-05T03:00:08.385Z,11.23
2023-01-05T03:01:08.485Z,11.18
2023-01-05T03:02:08.533Z,11.19
2023-01-05T03:03:08.430Z,11.17
2023-01-05T03:04:08.336Z,11.30
2023-01-05T03:05:08.349Z,11.26
2023-01-05T03:06:08.859Z,11.18
2023-01-05T03:07:08.338Z,11.11
2023-01-05T03:08:08.320Z,11.07
2023-01-05T03:09:08.321Z,11.08
2023-01-05T03:10:08.283Z,11.00
2023-01-05T03:11:08.280Z,10.96
2023-01-05T03:12:08.286Z,10.99
2023-01-05T03:13:08.268Z,11.02
2023-01-05T03:14:08.254Z,10.87
2023-01-05T03:15:08.267Z,10.96
2023-01-05T03:16:08.267Z,10.93
2023-01-05T03:17:08.781Z,10.79
2023-01-05T03:18:08.215Z,10.81
2023-01-05T03:19:08.206Z,10.82
2023-01-05T03:20:08.201Z,10.74
2023-01-05T03:21:08.206Z,10.81
2023-01-05T03:22:08.192Z,10.76
2023-01-05T03:23:08.180Z,10.82
2023-01-05T03:24:08.169Z,10.84
2023-01-05T03:25:08.168Z,10.87
2023-01-05T03:26:08.153Z,10.82
2023-01-05T03:27:08.150Z,10.82
2023-01-05T03:28:08.140Z,10.78
2023-01-05T03:29:08.131Z,10.78
2023-01-05T03:30:08.138Z,10.84
2023-01-05T03:31:08.174Z,10.71
2023-01-05T03:32:09.115Z,10.72
2023-01-05T03:33:08.104Z,10.71
2023-01-05T03:34:08.086Z,10.68
2023-01-05T03:35:08.089Z,10.68
2023-01-05T03:36:08.071Z,10.67
2023-01-05T03:37:08.077Z,10.63
2023-01-05T03:38:08.069Z,10.60
2023-01-05T03:39:09.065Z,10.63
2023-01-05T03:40:08.076Z,10.51
2023-01-05T03:41:08.034Z,10.61
2023-01-05T03:42:08.887Z,10.57
2023-01-05T03:43:08.018Z,10.51
2023-01-05T03:44:08.031Z,10.56
2023-01-05T03:45:08.016Z,10.56
2023-01-05T03:46:08.033Z,10.42
2023-01-05T03:47:08.022Z,10.51
2023-01-05T03:48:08.008Z,10.59
2023-01-05T03:49:07.977Z,10.64
2023-01-05T03:50:07.992Z,10.53
2023-01-05T03:51:08.007Z,10.59
2023-01-05T03:52:07.964Z,10.56
2023-01-05T03:53:07.981Z,10.57
2023-01-05T03:54:07.965Z,10.54
2023-01-05T03:55:07.944Z,10.49
2023-01-05T03:56:07.949Z,10.51
2023-01-05T03:57:07.922Z,10.59
2023-01-05T03:58:07.917Z,10.59
2023-01-05T03:59:07.912Z,10.61
2023-01-05T04:00:08.890Z,10.56
2023-01-05T04:01:07.997Z,10.51
2023-01-05T04:02:08.104Z,10.59
2023-01-05T04:03:07.995Z,10.59
2023-01-05T04:04:07.860Z,10.54
2023-01-05T04:05:07.844Z,10.54
2023-01-05T04:06:07.874Z,10.63
2023-01-05T04:07:07.830Z,10.53
2023-01-05T04:08:07.838Z,10.61
2023-01-05T04:09:07.828Z,10.60
2023-01-05T04:10:07.827Z,10.56
2023-01-05T04:11:07.807Z,10.61
2023-01-05T04:12:07.800Z,10.63
2023-01-05T04:13:07.827Z,10.64
2023-01-05T04:14:07.770Z,10.74
2023-01-05T04:15:07.779Z,10.64
2023-01-05T04:16:07.834Z,10.69
2023-01-05T04:17:07.765Z,10.72
2023-01-05T04:18:07.763Z,10.63
2023-01-05T04:19:07.761Z,10.59
2023-01-05T04:20:07.738Z,10.64
2023-01-05T04:21:07.738Z,10.64
2023-01-05T04:22:07.718Z,10.60
2023-01-05T04:23:07.718Z,10.51
2023-01-05T04:24:07.706Z,10.57
2023-01-05T04:25:07.703Z,10.53
2023-01-05T04:26:07.695Z,10.51
2023-01-05T04:27:07.685Z,10.60
2023-01-05T04:28:07.693Z,10.57
2023-01-05T04:29:07.659Z,10.53
2023-01-05T04:30:07.657Z,10.51
2023-01-05T04:31:07.696Z,10.56
2023-01-05T04:32:07.634Z,10.49
2023-01-05T04:33:08.372Z,10.48
2023-01-05T04:34:07.616Z,10.48
2023-01-05T04:35:11.221Z,10.53
2023-01-05T04:36:08.624Z,10.42
2023-01-05T04:37:08.296Z,10.48
2023-01-05T04:38:07.598Z,10.46
2023-01-05T04:39:07.576Z,10.49
2023-01-05T04:40:07.567Z,10.42
2023-01-05T04:41:07.557Z,10.49
2023-01-05T04:42:07.549Z,10.51
2023-01-05T04:43:07.549Z,10.42
2023-01-05T04:44:07.531Z,10.46
2023-01-05T04:45:07.535Z,10.44
2023-01-05T04:46:07.583Z,10.42
2023-01-05T04:47:07.516Z,10.35
2023-01-05T04:48:07.527Z,10.40
2023-01-05T04:49:07.509Z,10.40
2023-01-05T04:50:07.507Z,10.38
2023-01-05T04:51:07.552Z,10.37
2023-01-05T04:52:07.486Z,10.40
2023-01-05T04:53:07.491Z,10.40
2023-01-05T04:54:07.467Z,10.46
2023-01-05T04:55:07.474Z,10.49
2023-01-05T04:56:07.441Z,10.42
2023-01-05T04:57:07.438Z,10.40
2023-01-05T04:58:11.790Z,10.41
2023-01-05T04:59:08.436Z,10.38
2023-01-05T05:00:07.418Z,10.46
2023-01-05T05:01:07.446Z,10.34
2023-01-05T05:02:07.527Z,10.34
2023-01-05T05:03:07.535Z,10.41
2023-01-05T05:04:07.424Z,10.35
2023-01-05T05:05:07.383Z,10.30
2023-01-05T05:06:07.370Z,10.34
2023-01-05T05:07:07.428Z,10.33
2023-01-05T05:08:07.374Z,10.25
2023-01-05T05:09:07.360Z,10.28
2023-01-05T05:10:07.336Z,10.28
2023-01-05T05:11:07.339Z,10.23
2023-01-05T05:12:07.328Z,10.10
2023-01-05T05:13:07.319Z,10.02
2023-01-05T05:14:07.314Z,10.04
2023-01-05T05:15:07.332Z,9.98
2023-01-05T05:16:07.330Z,9.95
2023-01-05T05:17:07.316Z,9.89
2023-01-05T05:18:09.599Z,9.89
2023-01-05T05:19:08.274Z,9.83
2023-01-05T05:20:07.282Z,9.79
2023-01-05T05:21:07.256Z,9.80
2023-01-05T05:22:07.248Z,9.77
2023-01-05T05:23:08.251Z,9.82
2023-01-05T05:24:07.230Z,9.80
2023-01-05T05:25:07.227Z,9.84
2023-01-05T05:26:07.214Z,9.76
2023-01-05T05:27:07.200Z,9.80
2023-01-05T05:28:08.815Z,9.77
2023-01-05T05:29:07.186Z,9.68
2023-01-05T05:30:07.915Z,9.65
2023-01-05T05:31:07.234Z,9.62
2023-01-05T05:33:13.722Z,9.65
2023-01-05T05:34:14.378Z,9.58
2023-01-05T05:35:13.711Z,9.64
2023-01-05T05:36:13.708Z,9.61
2023-01-05T05:37:14.377Z,9.56
2023-01-05T05:38:13.695Z,9.72
2023-01-05T05:39:13.709Z,9.65
2023-01-05T05:40:13.666Z,9.65
2023-01-05T05:41:13.660Z,9.69
2023-01-05T05:42:13.649Z,9.68
2023-01-05T05:43:14.748Z,9.73
2023-01-05T05:44:14.762Z,9.72
2023-01-05T05:45:14.744Z,9.72
2023-01-05T05:46:14.797Z,9.73
2023-01-05T05:47:14.708Z,9.80
2023-01-05T05:48:14.734Z,9.73
2023-01-05T05:49:14.704Z,9.73
2023-01-05T05:50:14.697Z,9.83
2023-01-05T05:51:14.700Z,9.77
2023-01-05T05:52:14.690Z,9.84
2023-01-05T05:53:14.669Z,9.84
2023-01-05T05:54:14.647Z,9.86
2023-01-05T05:55:14.646Z,9.79
2023-01-05T05:56:14.640Z,9.86
2023-01-05T05:57:14.631Z,9.89
2023-01-05T05:58:14.630Z,9.91
2023-01-05T05:59:14.610Z,9.87
2023-01-05T06:00:14.608Z,9.89
2023-01-05T06:01:14.628Z,9.86
2023-01-05T06:02:14.702Z,9.87
2023-01-05T06:03:14.694Z,9.80
2023-01-05T06:04:14.566Z,9.80
2023-01-05T06:05:14.568Z,9.87
2023-01-05T06:06:14.573Z,9.87
2023-01-05T06:07:14.581Z,9.82
2023-01-05T06:08:14.542Z,9.92
2023-01-05T06:09:14.547Z,9.74
2023-01-05T06:10:15.523Z,9.87
2023-01-05T06:11:14.517Z,9.84
2023-01-05T06:12:14.524Z,9.82
2023-01-05T06:13:14.500Z,9.83
2023-01-05T06:14:14.533Z,9.91
2023-01-05T06:15:14.491Z,9.73
2023-01-05T06:16:14.509Z,9.77
2023-01-05T06:17:14.463Z,9.82
2023-01-05T06:18:14.491Z,9.79
2023-01-05T06:19:14.472Z,9.69
2023-01-05T06:20:14.987Z,9.66
2023-01-05T06:21:14.453Z,9.73
2023-01-05T06:22:14.459Z,9.64
2023-01-05T06:23:14.439Z,9.65
2023-01-05T06:24:14.425Z,9.76
2023-01-05T06:25:14.422Z,9.65
2023-01-05T06:26:14.428Z,9.79
2023-01-05T06:27:14.415Z,9.73
2023-01-05T06:28:19.918Z,9.77
2023-01-05T06:29:16.401Z,9.68
2023-01-05T06:30:14.408Z,9.77
2023-01-05T06:31:14.410Z,9.73
2023-01-05T06:32:14.391Z,9.76
2023-01-05T06:33:14.366Z,9.86
2023-01-05T06:34:14.348Z,9.91
2023-01-05T06:35:14.332Z,9.84
2023-01-05T06:36:14.358Z,9.89
2023-01-05T06:37:14.325Z,9.91
2023-01-05T06:38:14.323Z,9.95
2023-01-05T06:39:14.633Z,9.92
2023-01-05T06:40:14.313Z,10.07
2023-01-05T06:41:14.293Z,10.09
2023-01-05T06:42:16.902Z,10.15
2023-01-05T06:43:16.015Z,10.10
2023-01-05T06:44:14.985Z,10.13
2023-01-05T06:45:14.268Z,10.04
2023-01-05T06:46:14.981Z,10.12
2023-01-05T06:47:15.260Z,10.07
2023-01-05T06:48:14.267Z,10.05
2023-01-05T06:49:14.223Z,9.97
2023-01-05T06:50:14.216Z,10.09
2023-01-05T06:51:14.220Z,10.07
2023-01-05T06:52:16.623Z,10.05
2023-01-05T06:53:15.219Z,10.02
2023-01-05T06:54:14.920Z,10.01
2023-01-05T06:55:14.192Z,10.01
2023-01-05T06:56:14.217Z,9.98
2023-01-05T06:57:14.181Z,9.99
2023-01-05T06:58:14.169Z,10.09
2023-01-05T06:59:14.154Z,10.01
2023-01-05T07:00:14.144Z,10.01
2023-01-05T07:01:14.292Z,10.04
2023-01-05T07:02:14.938Z,10.02
2023-01-05T07:03:14.112Z,9.98
2023-01-05T07:04:14.225Z,9.91
2023-01-05T07:05:14.104Z,9.95
2023-01-05T07:06:15.065Z,9.98
2023-01-05T07:07:15.108Z,10.01
2023-01-05T07:08:14.088Z,9.94
2023-01-05T07:09:14.077Z,9.89
2023-01-05T07:10:14.068Z,9.94
2023-01-05T07:11:14.062Z,9.89
2023-01-05T07:12:14.047Z,9.94
2023-01-05T07:13:14.041Z,9.87
2023-01-05T07:14:14.080Z,9.92
2023-01-05T07:15:14.075Z,9.86
2023-01-05T07:16:14.118Z,9.89
2023-01-05T07:17:14.014Z,9.87
2023-01-05T07:18:14.088Z,9.92
2023-01-05T07:19:14.025Z,9.86
2023-01-05T07:20:13.988Z,9.94
2023-01-05T07:21:13.970Z,9.92
2023-01-05T07:22:14.006Z,9.87
2023-01-05T07:23:13.950Z,9.87
2023-01-05T07:24:13.947Z,9.72
2023-01-05T07:25:13.941Z,9.69
2023-01-05T07:26:13.974Z,9.68
2023-01-05T07:27:13.939Z,9.68
2023-01-05T07:28:13.974Z,9.73
2023-01-05T07:29:13.974Z,9.69
2023-01-05T07:30:13.919Z,9.62
2023-01-05T07:31:13.925Z,9.66
2023-01-05T07:32:13.914Z,9.62
2023-01-05T07:33:13.933Z,9.64
2023-01-05T07:34:13.869Z,9.68
2023-01-05T07:35:13.857Z,9.69
2023-01-05T07:36:14.403Z,9.74
2023-01-05T07:37:13.864Z,9.79
2023-01-05T07:38:13.833Z,9.73
2023-01-05T07:39:14.409Z,9.69
2023-01-05T07:40:13.836Z,9.66
2023-01-05T07:41:13.812Z,9.64
2023-01-05T07:42:13.816Z,9.64
2023-01-05T07:43:13.795Z,9.58
2023-01-05T07:44:13.819Z,9.58
2023-01-05T07:45:13.780Z,9.61
2023-01-05T07:46:13.977Z,9.65
2023-01-05T07:47:14.410Z,9.56
2023-01-05T07:48:15.077Z,9.59
2023-01-05T07:49:13.749Z,9.55
2023-01-05T07:50:13.744Z,9.64
2023-01-05T07:51:14.432Z,9.68
2023-01-05T07:52:13.806Z,9.61
2023-01-05T07:53:13.731Z,9.64
2023-01-05T07:54:13.705Z,9.69
2023-01-05T07:55:18.620Z,9.64
2023-01-05T07:56:14.508Z,9.66
2023-01-05T07:57:16.498Z,9.73
2023-01-05T07:58:13.687Z,9.74
2023-01-05T07:59:13.694Z,9.83
2023-01-05T08:00:13.714Z,9.80
2023-01-05T08:01:13.801Z,9.80
2023-01-05T08:02:13.813Z,9.82
2023-01-05T08:03:13.717Z,9.80
2023-01-05T08:04:14.482Z,9.87
2023-01-05T08:05:13.702Z,9.84
2023-01-05T08:06:13.632Z,9.87
2023-01-05T08:07:13.611Z,9.83
2023-01-05T08:08:15.649Z,9.79
2023-01-05T08:09:14.605Z,9.79
2023-01-05T08:10:13.592Z,9.87
2023-01-05T08:11:13.571Z,9.89
2023-01-05T08:12:13.588Z,9.87
2023-01-05T08:13:13.595Z,9.91
2023-01-05T08:14:14.411Z,9.89
2023-01-05T08:15:13.557Z,9.77
2023-01-05T08:16:13.560Z,9.79
2023-01-05T08:17:13.542Z,9.83
2023-01-05T08:18:13.592Z,9.82
2023-01-05T08:19:13.542Z,9.84
2023-01-05T08:20:13.521Z,9.89
2023-01-05T08:21:13.527Z,9.86
2023-01-05T08:22:13.545Z,9.87
2023-01-05T08:23:13.498Z,9.95
2023-01-05T08:24:14.499Z,9.97
2023-01-05T08:25:13.480Z,9.92
2023-01-05T08:26:13.482Z,9.94
2023-01-05T08:27:13.475Z,9.94
2023-01-05T08:28:13.469Z,10.01
2023-01-05T08:29:13.460Z,9.95
2023-01-05T08:30:13.461Z,10.04
2023-01-05T08:31:13.452Z,10.05
2023-01-05T08:32:15.073Z,10.19
2023-01-05T08:33:13.415Z,10.15
2023-01-05T08:34:13.445Z,10.22
2023-01-05T08:35:13.407Z,10.23
2023-01-05T08:36:13.412Z,10.20
2023-01-05T08:37:13.935Z,10.23
2023-01-05T08:38:13.396Z,10.28
2023-01-05T08:39:13.458Z,10.20
2023-01-05T08:40:13.391Z,10.20
2023-01-05T08:41:13.360Z,10.23
2023-01-05T08:42:13.349Z,10.33
2023-01-05T08:43:13.357Z,10.30
2023-01-05T08:44:13.356Z,10.41
2023-01-05T08:45:13.351Z,10.33
2023-01-05T08:46:13.517Z,10.35
2023-01-05T08:47:13.316Z,10.35
2023-01-05T08:48:13.303Z,10.28
2023-01-05T08:49:13.295Z,10.33
2023-01-05T08:50:13.313Z,10.38
2023-01-05T08:51:13.292Z,10.46
2023-01-05T08:52:13.298Z,10.40
2023-01-05T08:53:13.271Z,10.51
2023-01-05T08:54:13.271Z,10.51
2023-01-05T08:55:13.264Z,10.51
2023-01-05T08:56:13.244Z,10.61
2023-01-05T08:57:13.281Z,10.59
2023-01-05T08:58:13.260Z,10.54
2023-01-05T08:59:13.921Z,10.60
2023-01-05T09:00:13.217Z,10.63
2023-01-05T09:01:13.358Z,10.60
2023-01-05T09:02:13.453Z,10.68
2023-01-05T09:03:13.256Z,10.68
2023-01-05T09:04:13.185Z,10.63
2023-01-05T09:05:13.195Z,10.69
2023-01-05T09:06:13.180Z,10.64
2023-01-05T09:07:13.200Z,10.71
2023-01-05T09:08:13.171Z,10.76
2023-01-05T09:09:13.152Z,10.75
2023-01-05T09:10:13.186Z,10.76
2023-01-05T09:11:13.105Z,10.72
2023-01-05T09:12:14.943Z,10.76
2023-01-05T09:13:13.105Z,10.67
2023-01-05T09:14:13.122Z,10.67
2023-01-05T09:15:13.118Z,10.72
2023-01-05T09:16:13.157Z,10.71
2023-01-05T09:17:13.137Z,10.68
2023-01-05T09:18:13.083Z,10.64
2023-01-05T09:19:13.059Z,10.71
2023-01-05T09:20:13.065Z,10.71
2023-01-05T09:21:13.048Z,10.75
2023-01-05T09:22:13.043Z,10.76
2023-01-05T09:23:13.028Z,10.84
2023-01-05T09:24:13.203Z,10.81
2023-01-05T09:25:13.026Z,10.90
2023-01-05T09:26:13.019Z,10.84
2023-01-05T09:27:13.016Z,10.89
2023-01-05T09:28:12.978Z,10.90
2023-01-05T09:29:13.008Z,10.89
2023-01-05T09:30:13.124Z,10.89
2023-01-05T09:31:13.013Z,10.94
2023-01-05T09:32:13.042Z,10.87
2023-01-05T09:33:12.968Z,10.84
2023-01-05T09:34:12.945Z,10.79
2023-01-05T09:35:12.926Z,10.72
2023-01-05T09:36:12.962Z,10.68
2023-01-05T09:37:12.941Z,10.69
2023-01-05T09:38:13.015Z,10.74
2023-01-05T09:39:13.481Z,10.69
2023-01-05T09:40:13.015Z,10.79
2023-01-05T09:41:12.949Z,10.76
2023-01-05T09:42:13.499Z,10.87
2023-01-05T09:43:12.874Z,10.84
2023-01-05T09:44:12.871Z,10.79
2023-01-05T09:45:12.887Z,10.78
2023-01-05T09:46:12.917Z,10.81
2023-01-05T09:47:13.828Z,10.82
2023-01-05T09:48:13.541Z,10.94
2023-01-05T09:49:12.872Z,10.87
2023-01-05T09:50:12.816Z,11.04
2023-01-05T09:51:12.823Z,10.93
2023-01-05T09:52:12.813Z,11.07
2023-01-05T09:53:12.785Z,11.04
2023-01-05T09:54:12.927Z,11.02
2023-01-05T09:55:12.789Z,10.92
2023-01-05T09:56:13.772Z,11.05
2023-01-05T09:57:13.456Z,11.08
2023-01-05T09:58:12.770Z,11.14
2023-01-05T09:59:14.540Z,11.17
2023-01-05T10:00:12.749Z,11.18
2023-01-05T10:01:12.761Z,11.22
2023-01-05T10:02:12.718Z,11.29
2023-01-05T10:03:29.279Z,11.27
2023-01-05T10:04:14.860Z,11.30
2023-01-05T10:05:12.929Z,11.32
2023-01-05T10:06:12.684Z,11.33
2023-01-05T10:07:13.691Z,11.41
2023-01-05T10:08:12.724Z,11.33
2023-01-05T10:09:12.648Z,11.35
2023-01-05T10:10:13.147Z,11.43
2023-01-05T10:11:13.531Z,11.40
2023-01-05T10:12:12.638Z,11.37
2023-01-05T10:13:12.657Z,11.29
2023-01-05T10:14:12.615Z,11.37
2023-01-05T10:15:12.625Z,11.37
2023-01-05T10:16:12.770Z,11.37
2023-01-05T10:17:39.864Z,11.41
2023-01-05T10:18:14.744Z,11.37
2023-01-05T10:19:12.609Z,11.47
2023-01-05T10:20:12.571Z,11.43
2023-01-05T10:21:13.592Z,11.37
2023-01-05T10:22:12.556Z,11.52
2023-01-05T10:23:13.463Z,11.43
2023-01-05T10:24:12.542Z,11.60
2023-01-05T10:25:12.561Z,11.68
2023-01-05T10:26:14.136Z,11.70
2023-01-05T10:27:27.870Z,11.91
2023-01-05T10:28:14.516Z,11.95
2023-01-05T10:29:12.500Z,12.03
2023-01-05T10:30:12.486Z,11.99
2023-01-05T10:31:13.616Z,12.03
2023-01-05T10:32:12.640Z,12.04
2023-01-05T10:33:26.448Z,12.21
2023-01-05T10:34:16.264Z,11.99
2023-01-05T10:35:33.852Z,12.02
2023-01-05T10:36:16.472Z,12.09
2023-01-05T10:37:12.458Z,12.04
2023-01-05T10:38:12.444Z,12.02
2023-01-05T10:39:12.411Z,11.95
2023-01-05T10:40:12.617Z,11.99
2023-01-05T10:41:12.405Z,11.94
2023-01-05T10:42:15.129Z,12.10
2023-01-05T10:43:12.390Z,12.04
2023-01-05T10:44:12.377Z,12.09
2023-01-05T10:45:12.386Z,12.10
2023-01-05T10:47:15.016Z,12.06
2023-01-05T10:48:14.069Z,12.02
2023-01-05T10:49:12.348Z,12.06
2023-01-05T10:50:12.361Z,12.03
2023-01-05T10:51:12.323Z,12.03
2023-01-05T10:52:12.312Z,12.00
2023-01-05T10:53:12.998Z,11.91
2023-01-05T10:54:13.095Z,11.91
2023-01-05T10:55:12.305Z,11.91
2023-01-05T10:56:13.069Z,11.99
2023-01-05T10:57:12.964Z,11.97
2023-01-05T10:58:12.403Z,11.99
2023-01-05T10:59:12.272Z,11.91
2023-01-05T11:00:12.271Z,11.90
2023-01-05T11:01:12.421Z,11.84
2023-01-05T11:02:12.399Z,11.97
2023-01-05T11:03:12.242Z,11.91
2023-01-05T11:04:34.362Z,11.95
2023-01-05T11:05:16.042Z,11.78
2023-01-05T11:06:12.216Z,11.87
2023-01-05T11:07:14.081Z,11.80
2023-01-05T11:08:12.958Z,11.84
2023-01-05T11:09:17.349Z,11.81
2023-01-05T11:10:15.481Z,11.80
2023-01-05T11:11:13.362Z,11.81
2023-01-05T11:12:12.181Z,11.77
2023-01-05T11:13:17.545Z,11.77
2023-01-05T11:14:12.176Z,11.73
2023-01-05T11:15:12.144Z,11.75
2023-01-05T11:16:12.234Z,11.81
2023-01-05T11:17:12.115Z,11.78
2023-01-05T11:18:12.139Z,11.83
2023-01-05T11:19:12.105Z,11.80
2023-01-05T11:21:23.349Z,11.88
2023-01-05T11:22:24.973Z,11.81
2023-01-05T11:23:23.314Z,11.78
2023-01-05T11:24:23.325Z,11.75
2023-01-05T11:25:23.331Z,11.75
2023-01-05T11:26:23.329Z,11.66
2023-01-05T11:27:23.322Z,11.77
2023-01-05T11:28:23.393Z,11.69
2023-01-05T11:30:31.640Z,11.63
2023-01-05T11:31:31.347Z,11.59
2023-01-05T11:32:31.269Z,11.66
2023-01-05T11:33:31.265Z,11.55
2023-01-05T11:34:31.236Z,11.63
2023-01-05T11:35:32.316Z,11.62
2023-01-05T11:36:32.324Z,11.62
2023-01-05T11:37:32.305Z,11.59
2023-01-05T11:38:33.230Z,11.65
2023-01-05T11:39:32.740Z,11.66
2023-01-05T11:40:32.290Z,11.70
2023-01-05T11:41:32.263Z,11.75
2023-01-05T11:42:33.296Z,11.80
2023-01-05T11:43:32.410Z,11.83
2023-01-05T11:44:32.253Z,11.94
2023-01-05T11:45:32.240Z,12.10
2023-01-05T11:46:32.285Z,12.06
2023-01-05T11:47:34.300Z,12.02
2023-01-05T11:48:33.226Z,12.25
2023-01-05T11:49:33.076Z,12.24
2023-01-05T11:50:32.702Z,12.18
2023-01-05T11:51:32.193Z,12.21
2023-01-05T11:52:32.225Z,12.35
2023-01-05T11:53:32.179Z,12.42
2023-01-05T11:54:32.180Z,12.50
2023-01-05T11:55:32.756Z,12.55
2023-01-05T11:56:35.154Z,12.50
2023-01-05T11:57:32.146Z,12.55
2023-01-05T11:58:32.141Z,12.49
2023-01-05T11:59:34.685Z,12.60
2023-01-05T12:00:32.179Z,12.49
2023-01-05T12:01:32.756Z,12.60
2023-01-05T12:02:32.215Z,12.49
2023-01-05T12:03:35.730Z,12.49
2023-01-05T12:04:32.657Z,12.47
2023-01-05T12:05:33.707Z,12.47
2023-01-05T12:06:34.080Z,12.57
2023-01-05T12:07:37.323Z,12.47
2023-01-05T12:08:32.058Z,12.58
2023-01-05T12:09:35.020Z,12.76
2023-01-05T12:10:34.636Z,12.62
2023-01-05T12:11:32.021Z,12.70
2023-01-05T12:12:32.643Z,12.68
2023-01-05T12:13:33.080Z,12.72
2023-01-05T12:14:32.218Z,12.68
2023-01-05T12:15:32.097Z,12.78
2023-01-05T12:16:32.037Z,12.90
2023-01-05T12:17:31.993Z,12.82
2023-01-05T12:18:31.967Z,12.78
2023-01-05T12:19:31.989Z,12.82
2023-01-05T12:20:31.964Z,12.83
2023-01-05T12:21:31.961Z,12.87
2023-01-05T12:22:31.938Z,13.01
2023-01-05T12:23:31.929Z,12.91
2023-01-05T12:24:38.890Z,12.94
2023-01-05T12:25:33.629Z,12.93
2023-01-05T12:26:34.632Z,12.94
2023-01-05T12:27:31.917Z,13.04
2023-01-05T12:28:41.611Z,13.11
2023-01-05T12:30:46.804Z,13.05
2023-01-05T12:33:44.380Z,13.09
2023-01-05T12:33:44.631Z,13.05
2023-01-05T12:34:36.640Z,13.04
2023-01-05T12:35:31.846Z,13.03
2023-01-05T12:36:31.816Z,13.12
2023-01-05T12:37:31.835Z,13.15
2023-01-05T12:38:32.159Z,13.12
2023-01-05T12:39:32.125Z,13.13
2023-01-05T12:40:34.750Z,13.12
2023-01-05T12:41:31.784Z,13.03
2023-01-05T12:42:33.633Z,13.00
2023-01-05T12:43:33.630Z,13.09
2023-01-05T12:44:31.755Z,12.95
2023-01-05T12:45:32.231Z,13.03
2023-01-05T12:46:32.823Z,13.04
2023-01-05T12:47:31.875Z,12.91
2023-01-05T12:48:31.734Z,12.93
2023-01-05T12:49:31.803Z,12.94
2023-01-05T12:50:31.703Z,12.86
2023-01-05T12:51:31.710Z,12.76
2023-01-05T12:52:31.697Z,12.83
2023-01-05T12:53:31.712Z,12.73
2023-01-05T12:54:32.662Z,12.61
2023-01-05T12:55:31.663Z,12.60
2023-01-05T12:56:31.653Z,12.58
2023-01-05T12:57:32.663Z,12.49
2023-01-05T12:58:31.637Z,12.50
2023-01-05T12:59:33.141Z,12.49
2023-01-05T13:00:31.665Z,12.49
2023-01-05T13:01:31.780Z,12.37
2023-01-05T13:02:31.682Z,12.40
2023-01-05T13:03:32.351Z,12.45
2023-01-05T13:04:38.907Z,12.58
2023-01-05T13:05:39.671Z,12.46
2023-01-05T13:06:31.571Z,12.49
2023-01-05T13:07:31.599Z,12.46